createdAt,value
2023-01-22T00:00:28.162Z,7.13
2023-01-22T00:03:35.620Z,9.00
2023-01-22T00:06:38.635Z,9.37
2023-01-22T00:09:44.685Z,8.43
2023-01-22T00:12:47.753Z,8.13
2023-01-22T00:15:52.993Z,12.17
2023-01-22T00:19:00.972Z,9.40
2023-01-22T00:22:04.003Z,14.20
2023-01-22T00:25:08.735Z,10.30
2023-01-22T00:28:12.710Z,13.13
2023-01-22T00:31:19.553Z,12.30
2023-01-22T00:34:28.373Z,13.57
2023-01-22T00:37:33.890Z,9.83
2023-01-22T00:40:37.075Z,11.87
2023-01-22T00:43:40.558Z,11.80
2023-01-22T00:46:43.921Z,11.50
2023-01-22T00:49:48.712Z,10.83
2023-01-22T00:52:59.257Z,11.80
2023-01-22T00:56:04.119Z,11.90
2023-01-22T00:59:10.617Z,8.07
2023-01-22T01:02:14.024Z,13.83
2023-01-22T01:05:23.681Z,9.67
2023-01-22T01:08:30.366Z,12.07
2023-01-22T01:11:33.570Z,9.27
2023-01-22T01:14:36.628Z,9.53
2023-01-22T01:17:39.779Z,13.77
2023-01-22T01:20:44.165Z,11.57
2023-01-22T01:23:49.439Z,15.90
2023-01-22T01:26:53.535Z,13.13
2023-01-22T01:29:56.764Z,18.53
2023-01-22T01:32:59.785Z,11.60
2023-01-22T01:36:12.700Z,11.33
2023-01-22T01:39:16.531Z,14.07
2023-01-22T01:42:29.519Z,12.77
2023-01-22T01:45:34.448Z,12.43
2023-01-22T01:48:40.910Z,15.80
2023-01-22T01:51:45.440Z,10.07
2023-01-22T01:54:53.714Z,10.63
2023-01-22T01:58:01.976Z,9.93
2023-01-22T02:01:12.308Z,8.50
2023-01-22T02:04:16.134Z,10.30
2023-01-22T02:07:21.380Z,9.47
2023-01-22T02:10:24.646Z,8.50
2023-01-22T02:13:33.114Z,9.17
2023-01-22T02:16:36.223Z,7.47
2023-01-22T02:19:41.259Z,8.37
2023-01-22T02:22:45.619Z,6.80
2023-01-22T02:25:48.764Z,9.30
2023-01-22T02:28:52.158Z,7.40
2023-01-22T02:31:55.493Z,7.33
2023-01-22T02:34:58.630Z,7.23
2023-01-22T02:38:09.608Z,7.57
2023-01-22T02:41:13.524Z,7.33
2023-01-22T02:44:16.554Z,7.97
2023-01-22T02:47:22.010Z,7.53
2023-01-22T02:50:25.724Z,8.43
2023-01-22T02:53:30.756Z,7.37
2023-01-22T02:56:34.708Z,7.50
2023-01-22T02:59:37.924Z,6.90
2023-01-22T03:02:41.019Z,6.80
2023-01-22T03:05:51.881Z,7.20
2023-01-22T03:08:58.336Z,6.73
2023-01-22T03:12:01.481Z,7.17
2023-01-22T03:15:27.317Z,6.30
2023-01-22T03:18:50.969Z,6.67
2023-01-22T03:21:55.036Z,6.17
2023-01-22T03:25:01.270Z,6.67
2023-01-22T03:28:16.602Z,7.30
2023-01-22T03:31:23.885Z,6.17
2023-01-22T03:34:28.016Z,7.57
2023-01-22T03:37:33.126Z,6.70
2023-01-22T03:40:37.803Z,7.50
2023-01-22T03:43:41.647Z,7.23
2023-01-22T03:46:46.233Z,7.40
2023-01-22T03:49:49.987Z,6.57
2023-01-22T03:52:53.140Z,7.87
2023-01-22T03:56:03.962Z,7.17
2023-01-22T03:59:09.060Z,7.37
2023-01-22T04:02:12.563Z,7.07
2023-01-22T04:05:28.540Z,8.03
2023-01-22T04:08:34.464Z,6.77
2023-01-22T04:11:39.544Z,7.63
2023-01-22T04:14:48.287Z,8.00
2023-01-22T04:17:51.764Z,7.43
2023-01-22T04:21:08.819Z,7.20
2023-01-22T04:24:19.050Z,7.83
2023-01-22T04:27:26.140Z,7.53
2023-01-22T04:30:33.753Z,8.07
2023-01-22T04:33:58.042Z,8.17
2023-01-22T04:37:03.878Z,8.30
2023-01-22T04:40:12.018Z,7.83
2023-01-22T04:43:16.575Z,7.63
2023-01-22T04:46:20.057Z,7.80
2023-01-22T04:49:23.273Z,7.87
2023-01-22T04:52:27.922Z,9.03
2023-01-22T04:55:31.893Z,8.53
2023-01-22T04:58:40.715Z,9.87
2023-01-22T05:01:44.260Z,7.97
2023-01-22T05:04:47.642Z,8.60
2023-01-22T05:07:50.841Z,8.03
2023-01-22T05:10:53.796Z,8.37
2023-01-22T05:14:03.510Z,9.07
2023-01-22T05:17:07.137Z,10.33
2023-01-22T05:20:11.828Z,9.27
2023-01-22T05:23:14.870Z,8.93
2023-01-22T05:26:19.239Z,10.73
2023-01-22T05:29:31.643Z,10.83
2023-01-22T05:32:46.494Z,10.50
2023-01-22T05:35:59.646Z,9.27
2023-01-22T05:39:02.974Z,11.43
2023-01-22T05:42:07.063Z,10.63
2023-01-22T05:45:12.756Z,13.10
2023-01-22T05:48:36.051Z,11.57
2023-01-22T05:51:47.934Z,10.50
2023-01-22T05:55:03.427Z,11.20
2023-01-22T05:58:13.447Z,11.23
2023-01-22T06:01:23.246Z,12.43
2023-01-22T06:04:28.513Z,11.60
2023-01-22T06:07:32.149Z,11.60
2023-01-22T06:10:36.717Z,12.27
2023-01-22T06:13:41.508Z,12.40
2023-01-22T06:16:54.128Z,12.30
2023-01-22T06:20:12.495Z,12.30
2023-01-22T06:23:18.899Z,15.70
2023-01-22T06:26:21.879Z,14.37
2023-01-22T06:29:25.238Z,11.37
2023-01-22T06:32:30.423Z,11.87
2023-01-22T06:35:35.653Z,11.67
2023-01-22T06:38:39.308Z,12.57
2023-01-22T06:41:44.630Z,14.50
2023-01-22T06:44:51.645Z,13.00
2023-01-22T06:47:57.689Z,11.83
2023-01-22T06:51:01.795Z,12.97
2023-01-22T06:54:08.603Z,13.90
2023-01-22T06:57:11.746Z,12.40
2023-01-22T07:00:17.403Z,12.53
2023-01-22T07:03:22.418Z,14.67
2023-01-22T07:06:25.476Z,15.23
2023-01-22T07:09:28.407Z,12.87
2023-01-22T07:12:31.580Z,14.23
2023-01-22T07:15:34.767Z,12.27
2023-01-22T07:18:39.056Z,12.80
2023-01-22T07:21:44.701Z,13.33
2023-01-22T07:24:47.646Z,14.93
2023-01-22T07:27:50.650Z,12.70
2023-01-22T07:30:56.497Z,13.97
2023-01-22T07:34:04.460Z,13.03
2023-01-22T07:37:07.512Z,15.47
2023-01-22T07:40:12.552Z,13.33
2023-01-22T07:43:16.650Z,11.60
2023-01-22T07:46:19.997Z,11.60
2023-01-22T07:49:24.359Z,11.13
2023-01-22T07:52:27.403Z,12.67
2023-01-22T07:55:32.998Z,12.17
2023-01-22T07:58:36.025Z,11.23
2023-01-22T08:01:39.035Z,11.40
2023-01-22T08:04:43.955Z,11.97
2023-01-22T08:07:46.906Z,11.17
2023-01-22T08:10:53.324Z,10.70
2023-01-22T08:13:58.633Z,11.67
2023-01-22T08:17:01.643Z,11.10
2023-01-22T08:20:10.853Z,12.00
2023-01-22T08:23:14.003Z,12.60
2023-01-22T08:26:17.019Z,12.73
2023-01-22T08:29:20.242Z,11.97
2023-01-22T08:32:23.403Z,15.37
2023-01-22T08:35:27.953Z,12.07
2023-01-22T08:38:30.954Z,12.23
2023-01-22T08:41:33.983Z,12.83
2023-01-22T08:44:36.997Z,13.83
2023-01-22T08:47:41.936Z,13.00
2023-01-22T08:50:46.523Z,15.10
2023-01-22T08:53:50.058Z,14.67
2023-01-22T08:56:53.130Z,12.57
2023-01-22T09:00:01.268Z,13.33
2023-01-22T09:03:06.561Z,16.57
2023-01-22T09:06:11.141Z,14.17
2023-01-22T09:09:14.336Z,15.37
2023-01-22T09:12:17.478Z,15.00
2023-01-22T09:15:20.760Z,15.27
2023-01-22T09:18:23.739Z,18.33
2023-01-22T09:21:28.073Z,14.90
2023-01-22T09:24:31.070Z,18.13
2023-01-22T09:27:34.099Z,14.70
2023-01-22T09:30:39.457Z,14.07
2023-01-22T09:33:51.252Z,15.07
2023-01-22T09:36:56.135Z,15.83
2023-01-22T09:39:59.212Z,13.90
2023-01-22T09:43:07.543Z,16.50
2023-01-22T09:46:19.187Z,15.23
2023-01-22T09:49:27.067Z,14.27
2023-01-22T09:52:35.883Z,14.03
2023-01-22T09:55:46.002Z,14.53
2023-01-22T09:58:53.507Z,14.47
2023-01-22T10:02:00.024Z,15.97
2023-01-22T10:05:07.420Z,18.37
2023-01-22T10:08:17.299Z,14.33
2023-01-22T10:11:20.506Z,15.60
2023-01-22T10:14:29.461Z,17.53
2023-01-22T10:17:47.253Z,16.77
2023-01-22T10:20:54.172Z,15.33
2023-01-22T10:24:01.102Z,15.40
2023-01-22T10:27:13.536Z,13.73
2023-01-22T10:30:24.837Z,17.40
2023-01-22T10:33:29.586Z,15.20
2023-01-22T10:36:33.120Z,16.33
2023-01-22T10:39:50.650Z,16.80
2023-01-22T10:43:12.876Z,15.30
2023-01-22T10:46:21.503Z,15.77
2023-01-22T10:49:27.965Z,16.97
2023-01-22T10:52:37.425Z,15.73
2023-01-22T10:55:43.981Z,18.50
2023-01-22T10:58:49.222Z,16.83
2023-01-22T11:01:59.519Z,17.70
2023-01-22T11:05:17.243Z,17.17
2023-01-22T11:08:22.059Z,17.77
2023-01-22T11:11:37.843Z,18.83
2023-01-22T11:14:41.088Z,20.00
2023-01-22T11:17:49.889Z,17.63
2023-01-22T11:20:56.299Z,17.77
2023-01-22T11:24:05.516Z,19.80
2023-01-22T11:27:32.564Z,22.07
2023-01-22T11:31:06.299Z,19.43
2023-01-22T11:34:29.240Z,18.07
2023-01-22T11:37:51.989Z,20.47
2023-01-22T11:41:17.592Z,18.03
2023-01-22T11:44:40.513Z,18.03
2023-01-22T11:48:09.774Z,16.47
2023-01-22T11:51:23.681Z,19.43
2023-01-22T11:54:43.509Z,16.50
2023-01-22T11:57:55.017Z,17.70
2023-01-22T12:01:20.569Z,16.67
2023-01-22T12:04:43.449Z,17.63
2023-01-22T12:08:12.824Z,17.00
2023-01-22T12:11:32.433Z,18.40
2023-01-22T12:15:00.422Z,21.83
2023-01-22T12:19:00.758Z,19.00
2023-01-22T12:22:10.435Z,15.97
2023-01-22T12:25:31.515Z,16.50
2023-01-22T12:28:47.896Z,16.83
2023-01-22T12:31:57.356Z,16.83
2023-01-22T12:35:15.179Z,16.03
2023-01-22T12:38:43.829Z,17.13
2023-01-22T12:42:01.921Z,17.33
2023-01-22T12:45:18.804Z,16.40
2023-01-22T12:48:28.828Z,17.87
2023-01-22T12:51:40.459Z,19.17
2023-01-22T12:54:43.525Z,18.83
2023-01-22T12:57:46.885Z,20.60
2023-01-22T13:01:02.846Z,21.43
2023-01-22T13:04:12.548Z,18.80
2023-01-22T13:07:24.798Z,19.73
2023-01-22T13:10:33.141Z,20.30
2023-01-22T13:13:43.957Z,17.77
2023-01-22T13:16:59.878Z,21.57
2023-01-22T13:20:14.763Z,19.17
2023-01-22T13:23:21.620Z,21.60
2023-01-22T13:26:29.480Z,22.60
2023-01-22T13:29:37.338Z,21.33
2023-01-22T13:32:43.661Z,23.57
2023-01-22T13:35:48.013Z,23.37
2023-01-22T13:38:59.271Z,24.53
2023-01-22T13:42:07.329Z,24.03
2023-01-22T13:45:19.087Z,21.63
2023-01-22T13:48:25.222Z,22.97
2023-01-22T13:51:28.460Z,25.90
2023-01-22T13:54:36.490Z,22.77
2023-01-22T13:57:46.282Z,26.43
2023-01-22T14:00:53.785Z,25.10
2023-01-22T14:04:04.545Z,26.23
2023-01-22T14:07:07.985Z,28.20
2023-01-22T14:10:18.628Z,29.03
2023-01-22T14:13:21.813Z,24.13
2023-01-22T14:16:24.912Z,28.93
2023-01-22T14:19:29.067Z,24.60
2023-01-22T14:22:32.117Z,27.53
2023-01-22T14:25:39.641Z,27.87
2023-01-22T14:28:42.860Z,25.37
2023-01-22T14:31:45.927Z,29.53
2023-01-22T14:34:50.960Z,29.10
2023-01-22T14:37:55.512Z,30.57
2023-01-22T14:41:00.220Z,32.97
2023-01-22T14:44:04.076Z,29.27
2023-01-22T14:47:09.379Z,28.87
2023-01-22T14:50:13.103Z,29.23
2023-01-22T14:53:18.051Z,28.93
2023-01-22T14:56:23.076Z,27.93
2023-01-22T14:59:26.671Z,29.63
2023-01-22T15:02:30.142Z,30.67
2023-01-22T15:05:35.478Z,33.43
2023-01-22T15:08:40.780Z,32.70
2023-01-22T15:11:45.539Z,30.47
2023-01-22T15:14:48.571Z,26.67
2023-01-22T15:17:51.911Z,29.30
2023-01-22T15:20:56.056Z,29.20
2023-01-22T15:24:01.448Z,32.43
2023-01-22T15:27:08.618Z,32.10
2023-01-22T15:35:37.523Z,34.37
2023-01-22T15:38:43.291Z,26.83
2023-01-22T15:41:47.233Z,36.93
2023-01-22T15:44:51.542Z,31.20
2023-01-22T15:47:54.871Z,33.47
2023-01-22T15:51:08.593Z,33.43
2023-01-22T15:54:16.129Z,31.87
2023-01-22T15:57:19.865Z,35.23
2023-01-22T16:00:27.923Z,32.87
2023-01-22T16:03:30.897Z,32.87
2023-01-22T16:06:35.559Z,33.13
2023-01-22T16:09:41.506Z,31.70
2023-01-22T16:12:44.731Z,33.80
2023-01-22T16:15:58.031Z,30.67
2023-01-22T16:19:03.500Z,31.20
2023-01-22T16:22:06.503Z,33.37
2023-01-22T16:25:10.421Z,33.17
2023-01-22T16:28:13.422Z,33.33
2023-01-22T16:31:19.871Z,35.70
2023-01-22T16:34:23.769Z,30.67
2023-01-22T16:37:26.966Z,29.97
2023-01-22T16:40:30.007Z,31.67
2023-01-22T16:43:34.320Z,27.17
2023-01-22T16:46:42.047Z,30.10
2023-01-22T16:49:47.110Z,26.50
2023-01-22T16:52:50.094Z,28.27
2023-01-22T16:55:53.165Z,26.83
2023-01-22T16:58:56.226Z,23.90
2023-01-22T17:02:03.021Z,26.07
2023-01-22T17:05:12.827Z,26.43
2023-01-22T17:08:16.279Z,24.97
2023-01-22T17:11:19.742Z,29.10
2023-01-22T17:14:27.107Z,26.50
2023-01-22T17:18:19.857Z,28.77
2023-01-22T17:21:23.437Z,24.83
2023-01-22T17:24:27.862Z,30.20
2023-01-22T17:27:32.198Z,26.63
2023-01-22T17:30:35.735Z,26.03
2023-01-22T17:33:47.096Z,27.57
2023-01-22T17:36:51.267Z,27.27
2023-01-22T17:39:54.475Z,24.27
2023-01-22T17:42:57.880Z,26.63
2023-01-22T17:46:01.076Z,25.00
2023-01-22T17:49:06.994Z,31.87
2023-01-22T17:52:11.582Z,29.37
2023-01-22T17:55:14.794Z,24.57
2023-01-22T17:58:18.764Z,26.50
2023-01-22T18:01:25.701Z,26.93
2023-01-22T18:04:32.979Z,31.60
2023-01-22T18:07:36.104Z,26.43
2023-01-22T18:10:39.443Z,28.30
2023-01-22T18:13:43.261Z,29.33
2023-01-22T18:16:46.639Z,31.27
2023-01-22T18:19:51.167Z,31.37
2023-01-22T18:22:54.709Z,28.03
2023-01-22T18:25:58.391Z,27.63
2023-01-22T18:29:01.631Z,32.07
2023-01-22T18:32:05.467Z,31.27
2023-01-22T18:35:11.219Z,26.27
2023-01-22T18:38:14.692Z,29.37
2023-01-22T18:41:30.012Z,28.70
2023-01-22T18:44:33.238Z,28.73
2023-01-22T18:47:37.130Z,29.13
2023-01-22T18:50:44.609Z,31.20
2023-01-22T18:53:47.754Z,28.13
2023-01-22T18:56:51.255Z,31.90
2023-01-22T18:59:54.787Z,31.00
2023-01-22T19:02:59.118Z,33.27
2023-01-22T19:06:13.321Z,27.00
2023-01-22T19:09:17.156Z,28.37
2023-01-22T19:12:20.564Z,29.07
2023-01-22T19:15:24.617Z,31.67
2023-01-22T19:18:29.459Z,27.73
2023-01-22T19:21:36.177Z,28.40
2023-01-22T19:24:39.176Z,26.90
2023-01-22T19:27:42.489Z,26.90
2023-01-22T19:30:47.883Z,26.13
2023-01-22T19:33:54.597Z,24.63
2023-01-22T19:37:02.373Z,25.83
2023-01-22T19:40:09.018Z,24.27
2023-01-22T19:43:13.783Z,25.83
2023-01-22T19:46:19.326Z,24.00
2023-01-22T19:49:22.460Z,25.10
2023-01-22T19:52:28.021Z,24.33
2023-01-22T19:55:31.177Z,24.73
2023-01-22T19:58:34.535Z,25.23
2023-01-22T20:01:38.045Z,24.07
2023-01-22T20:04:41.926Z,21.90
2023-01-22T20:07:46.320Z,25.00
2023-01-22T20:10:51.020Z,23.23
2023-01-22T20:13:54.988Z,24.37
2023-01-22T20:17:00.033Z,24.37
2023-01-22T20:20:07.902Z,24.53
2023-01-22T20:23:17.358Z,21.37
2023-01-22T20:26:22.764Z,23.17
2023-01-22T20:29:29.229Z,24.57
2023-01-22T20:32:32.677Z,25.77
2023-01-22T20:35:35.742Z,25.07
2023-01-22T20:38:41.631Z,25.40
2023-01-22T20:41:45.710Z,24.17
2023-01-22T20:44:50.000Z,24.97
2023-01-22T20:47:53.364Z,22.83
2023-01-22T20:50:56.750Z,23.13
2023-01-22T20:54:01.425Z,24.87
2023-01-22T20:57:06.591Z,25.30
2023-01-22T21:00:12.737Z,25.20
2023-01-22T21:03:15.801Z,31.50
2023-01-22T21:06:21.377Z,26.37
2023-01-22T21:09:27.973Z,26.80
2023-01-22T21:12:31.006Z,29.30
2023-01-22T21:15:34.431Z,28.53
2023-01-22T21:18:41.370Z,29.67
2023-01-22T21:21:44.984Z,28.37
2023-01-22T21:24:49.744Z,27.87
2023-01-22T21:27:53.291Z,30.07
2023-01-22T21:31:05.272Z,29.70
2023-01-22T21:34:10.603Z,29.33
2023-01-22T21:37:14.092Z,29.23
2023-01-22T21:40:19.490Z,33.43
2023-01-22T21:43:40.339Z,28.73
2023-01-22T21:46:45.976Z,30.37
2023-01-22T21:49:52.029Z,28.37
2023-01-22T21:52:55.310Z,29.47
2023-01-22T21:55:59.674Z,29.70
2023-01-22T21:59:02.727Z,26.53
2023-01-22T22:02:06.165Z,32.73
2023-01-22T22:05:12.037Z,30.50
2023-01-22T22:08:16.288Z,26.50
2023-01-22T22:11:20.788Z,30.20
2023-01-22T22:14:25.000Z,31.77
2023-01-22T22:17:28.009Z,28.63
2023-01-22T22:20:32.508Z,30.63
2023-01-22T22:23:36.639Z,30.60
2023-01-22T22:26:41.455Z,27.03
2023-01-22T22:29:44.441Z,30.97
2023-01-22T22:32:47.975Z,27.57
2023-01-22T22:35:51.050Z,27.27
2023-01-22T22:38:54.907Z,28.70
2023-01-22T22:41:59.263Z,32.80
2023-01-22T22:45:02.252Z,30.20
2023-01-22T22:48:06.791Z,28.07
2023-01-22T22:51:15.046Z,29.87
2023-01-22T22:54:20.031Z,29.63
2023-01-22T22:57:26.719Z,29.17
2023-01-22T23:00:29.945Z,30.73
2023-01-22T23:03:33.703Z,26.73
2023-01-22T23:06:37.983Z,28.57
2023-01-22T23:09:49.588Z,30.80
2023-01-22T23:12:54.191Z,34.83
2023-01-22T23:16:01.560Z,31.10
2023-01-22T23:19:08.198Z,29.60
2023-01-22T23:22:14.674Z,30.10
2023-01-22T23:25:19.723Z,33.87
2023-01-22T23:28:24.167Z,30.87
2023-01-22T23:31:28.205Z,30.50
2023-01-22T23:34:31.284Z,30.17
2023-01-22T23:37:34.567Z,27.63
2023-01-22T23:40:37.798Z,31.07
2023-01-22T23:43:42.504Z,36.90
2023-01-22T23:46:45.694Z,30.07
2023-01-22T23:49:51.923Z,35.60
2023-01-22T23:52:57.732Z,32.70
2023-01-22T23:56:01.875Z,34.20
2023-01-22T23:59:10.547Z,34.10
